EKSY weather

Skúvoy Heliport
Skúvoy, Faroe Islands

Public forecast

Using degrees Celsius for public forecast. Weather courtesy of forecast.io.

METAR (pilot weather report)

Closest report is Vagar Airport, 22.2 nm (41.0 km) NW. Retrieved 2019/09/16 07:32 UTC (0 seconds ago):

EKVG 160732Z 26019KT 9999 SHRAGS SCT015CB BKN030 07/03 Q1009

TAF (pilot weather forecast)

Forecast is more than 12 hours old.

Closest forecast is Vagar Airport, 22.2 nm (41.0 km) NW. Retrieved 2017/08/20 00:36 UTC (2 years ago):

TAF TAF EKVG 200034Z 2000/2012 33018KT 9000 FEW007 TEMPO 2003/2006 34025G35KT 4000 DZRA BKN006